Time;durP1;ratioP1;P1;durP2;ratioP2;P2;SDS_P1;SDS_P2;PMS_P1;PMS_P2;Temp;Humidity;BMP_temperature;BMP_pressure;BME280_temperature;BME280_humidity;BME280_pressure;Samples;Min_cycle;Max_cycle;Signal;HPM_P1;HPM_P2
2022/03/31 00:00:57;;;;;;;39.07;22.27;;;9.70;99.90;;;;;;5012832;28;20279;-71
2022/03/31 00:03:23;;;;;;;45.70;22.23;;;9.70;99.90;;;;;;5012817;28;20278;-71
2022/03/31 00:05:49;;;;;;;40.73;21.37;;;9.70;99.90;;;;;;5012603;28;20294;-69
2022/03/31 00:08:18;;;;;;;35.83;21.43;;;9.70;99.90;;;;;;4995354;28;20229;-70
2022/03/31 00:10:47;;;;;;;41.17;22.47;;;9.60;99.90;;;;;;5012447;28;20181;-68
2022/03/31 00:13:16;;;;;;;43.17;22.83;;;9.60;99.90;;;;;;4995099;28;20213;-70
2022/03/31 00:15:43;;;;;;;40.13;22.93;;;9.60;99.90;;;;;;5012086;28;20241;-69
2022/03/31 00:18:10;;;;;;;40.67;22.60;;;9.60;99.90;;;;;;5012817;28;20257;-67
2022/03/31 00:20:36;;;;;;;42.40;22.70;;;9.60;99.90;;;;;;5011402;28;20192;-69
2022/03/31 00:23:03;;;;;;;43.10;23.13;;;9.60;99.90;;;;;;5012356;28;20540;-70
2022/03/31 00:25:29;;;;;;;47.20;23.40;;;9.60;99.90;;;;;;5012454;28;20293;-68
2022/03/31 00:27:57;;;;;;;49.47;23.93;;;9.60;99.90;;;;;;5029975;28;20266;-70
2022/03/31 00:30:24;;;;;;;43.17;22.57;;;9.60;99.90;;;;;;5032257;28;20185;-69
2022/03/31 00:32:50;;;;;;;46.90;23.47;;;9.60;99.90;;;;;;5013965;28;20187;-69
2022/03/31 00:35:16;;;;;;;38.83;22.70;;;9.60;99.90;;;;;;5025864;28;20212;-69
2022/03/31 00:37:44;;;;;;;43.83;23.87;;;9.60;99.90;;;;;;5012173;28;20181;-69
2022/03/31 00:40:15;;;;;;;47.67;24.17;;;9.60;99.90;;;;;;5012159;28;20206;-69
2022/03/31 00:42:47;;;;;;;46.47;23.93;;;9.50;99.90;;;;;;5012084;28;20173;-69
2022/03/31 00:45:18;;;;;;;41.43;22.17;;;9.50;99.90;;;;;;5012300;28;20183;-68
2022/03/31 00:47:44;;;;;;;38.50;21.40;;;9.50;99.90;;;;;;5011527;28;20188;-68
2022/03/31 00:50:11;;;;;;;49.13;23.27;;;9.50;99.90;;;;;;5012170;28;20236;-69
2022/03/31 00:52:38;;;;;;;43.70;21.93;;;9.60;99.90;;;;;;5011871;28;20264;-71
2022/03/31 00:55:05;;;;;;;40.70;22.90;;;9.60;99.90;;;;;;5012257;28;20204;-69
2022/03/31 00:57:33;;;;;;;43.10;22.97;;;9.60;99.90;;;;;;5012195;28;20185;-70
2022/03/31 00:59:59;;;;;;;43.30;22.67;;;9.60;99.90;;;;;;5011944;28;20517;-68
2022/03/31 01:02:32;;;;;;;38.03;22.40;;;9.60;99.90;;;;;;5012187;28;20181;-70
2022/03/31 01:05:01;;;;;;;46.13;22.33;;;9.60;99.90;;;;;;5012479;28;20188;-68
2022/03/31 01:07:27;;;;;;;44.80;23.70;;;9.60;99.90;;;;;;5012041;28;20186;-68
2022/03/31 01:09:59;;;;;;;40.37;22.10;;;9.50;99.90;;;;;;5011770;28;20211;-67
2022/03/31 01:12:25;;;;;;;47.97;22.33;;;9.50;99.90;;;;;;5012034;28;20289;-68
2022/03/31 01:15:16;;;;;;;40.63;21.83;;;9.50;99.90;;;;;;5011719;28;20216;-71
2022/03/31 01:17:43;;;;;;;40.97;22.17;;;9.50;99.90;;;;;;4998038;28;20213;-70
2022/03/31 01:20:17;;;;;;;42.50;22.77;;;9.50;99.90;;;;;;5012014;28;20227;-68
2022/03/31 01:22:44;;;;;;;39.37;22.37;;;9.50;99.90;;;;;;5011726;28;20175;-69
2022/03/31 01:25:10;;;;;;;42.47;23.33;;;9.50;99.90;;;;;;5012010;28;20641;-72
2022/03/31 01:27:41;;;;;;;46.43;22.83;;;9.50;99.90;;;;;;5026197;28;20191;-71
2022/03/31 01:30:10;;;;;;;52.13;23.83;;;9.40;99.90;;;;;;5031803;28;20207;-68
2022/03/31 01:32:36;;;;;;;45.30;23.77;;;9.40;99.90;;;;;;5014033;28;20190;-67
2022/03/31 01:35:03;;;;;;;42.50;23.43;;;9.40;99.90;;;;;;5030968;28;20228;-68
2022/03/31 01:37:29;;;;;;;40.80;22.70;;;9.40;99.90;;;;;;5015314;28;20230;-68
2022/03/31 01:39:55;;;;;;;43.37;23.00;;;9.40;99.90;;;;;;5015199;28;20632;-68
2022/03/31 01:42:22;;;;;;;47.80;23.50;;;9.40;99.90;;;;;;5015403;28;20270;-67
2022/03/31 01:44:49;;;;;;;43.13;21.83;;;9.30;99.90;;;;;;5014967;28;20218;-68
2022/03/31 01:47:15;;;;;;;44.73;22.73;;;9.30;99.90;;;;;;5015464;28;20582;-68
2022/03/31 01:49:41;;;;;;;47.70;24.00;;;9.30;99.90;;;;;;5014915;28;20256;-67
2022/03/31 01:52:07;;;;;;;55.87;24.03;;;9.30;99.90;;;;;;4997485;28;20188;-68
2022/03/31 01:54:36;;;;;;;46.63;25.43;;;9.20;99.90;;;;;;5015196;28;20187;-68
2022/03/31 01:57:03;;;;;;;54.13;24.93;;;9.20;99.90;;;;;;5015108;28;20647;-68
2022/03/31 01:59:36;;;;;;;49.50;24.80;;;9.20;99.90;;;;;;5015182;28;20217;-68
2022/03/31 02:02:03;;;;;;;45.50;23.20;;;9.20;99.90;;;;;;5014839;28;20562;-68
2022/03/31 02:04:29;;;;;;;52.87;24.50;;;9.20;99.90;;;;;;5015132;28;20675;-68
2022/03/31 02:06:55;;;;;;;49.67;24.03;;;9.20;99.90;;;;;;5014652;28;20191;-68
2022/03/31 02:09:20;;;;;;;42.30;23.70;;;9.20;99.90;;;;;;5014902;28;20629;-67
2022/03/31 02:11:47;;;;;;;45.97;23.30;;;9.20;99.90;;;;;;5014561;28;20207;-67
2022/03/31 02:14:13;;;;;;;47.37;24.60;;;9.20;99.90;;;;;;5014560;28;20585;-67
2022/03/31 02:16:39;;;;;;;51.53;23.97;;;9.30;99.90;;;;;;5027178;28;20231;-68
2022/03/31 02:19:05;;;;;;;46.57;24.33;;;9.30;99.90;;;;;;5016562;28;20323;-67
2022/03/31 02:21:31;;;;;;;45.77;23.60;;;9.20;99.90;;;;;;5034386;28;20543;-67
2022/03/31 02:23:56;;;;;;;43.13;23.73;;;9.20;99.90;;;;;;5034334;28;20238;-68
2022/03/31 02:26:22;;;;;;;51.03;24.97;;;9.20;99.90;;;;;;5016567;28;20278;-67
2022/03/31 02:28:48;;;;;;;44.17;24.77;;;9.20;99.90;;;;;;5034027;28;20179;-68
2022/03/31 02:31:14;;;;;;;45.90;24.90;;;9.20;99.90;;;;;;5034244;28;20187;-67
2022/03/31 02:33:39;;;;;;;52.10;24.47;;;9.20;99.90;;;;;;5033931;28;20216;-68
2022/03/31 02:36:07;;;;;;;48.23;24.83;;;9.10;99.90;;;;;;5021069;28;20223;-67
2022/03/31 02:38:34;;;;;;;52.57;24.53;;;9.00;99.90;;;;;;5014180;28;20184;-67
2022/03/31 02:41:00;;;;;;;55.33;25.43;;;8.90;99.90;;;;;;5014001;28;20184;-67
2022/03/31 02:43:27;;;;;;;54.87;25.90;;;8.80;99.90;;;;;;5014076;28;20176;-68
2022/03/31 02:45:52;;;;;;;44.50;25.33;;;8.80;99.90;;;;;;5013059;28;20186;-68
2022/03/31 02:48:18;;;;;;;58.87;26.43;;;8.70;99.90;;;;;;5013818;28;20637;-67
2022/03/31 02:50:44;;;;;;;56.13;26.07;;;8.60;99.90;;;;;;5013934;28;20238;-67
2022/03/31 02:55:55;;;;;;;62.43;30.83;;;8.50;99.90;;;;;;5013466;28;20291;-67
2022/03/31 02:58:21;;;;;;;60.67;28.33;;;8.40;99.90;;;;;;5013832;28;20249;-67
2022/03/31 03:00:48;;;;;;;55.87;28.33;;;8.40;99.90;;;;;;5013307;28;20172;-68
2022/03/31 03:03:14;;;;;;;49.27;25.83;;;8.40;99.90;;;;;;5013729;28;20546;-67
2022/03/31 03:05:42;;;;;;;51.63;27.10;;;8.40;99.90;;;;;;4995797;28;20612;-67
2022/03/31 03:08:08;;;;;;;57.97;28.03;;;8.40;99.90;;;;;;4996207;28;20586;-68
2022/03/31 03:10:34;;;;;;;44.77;25.57;;;8.30;99.90;;;;;;5013434;28;20190;-67
2022/03/31 03:13:00;;;;;;;60.67;28.17;;;8.20;99.90;;;;;;5013221;28;20183;-67
2022/03/31 03:15:26;;;;;;;55.87;27.23;;;8.20;99.90;;;;;;5013229;28;20231;-67
2022/03/31 03:17:52;;;;;;;49.77;26.80;;;8.20;99.90;;;;;;5013257;28;20179;-67
2022/03/31 03:20:18;;;;;;;52.37;26.87;;;8.30;99.90;;;;;;5013164;28;20711;-68
2022/03/31 03:22:46;;;;;;;65.07;28.30;;;8.40;99.90;;;;;;5012952;28;20211;-68
2022/03/31 03:25:13;;;;;;;60.87;26.47;;;8.40;99.90;;;;;;5013274;28;20187;-67
2022/03/31 03:27:39;;;;;;;52.40;27.77;;;8.40;99.90;;;;;;5027781;28;20183;-67
2022/03/31 03:30:06;;;;;;;57.30;24.97;;;8.40;99.90;;;;;;5014972;28;20623;-69
2022/03/31 03:32:34;;;;;;;55.57;25.43;;;8.30;99.90;;;;;;5032728;28;20194;-67
2022/03/31 03:35:00;;;;;;;57.80;26.90;;;8.30;99.90;;;;;;5028159;28;20214;-68
2022/03/31 03:37:26;;;;;;;50.20;25.10;;;8.30;99.90;;;;;;5013244;28;20270;-67
2022/03/31 03:39:52;;;;;;;62.50;27.23;;;8.30;99.90;;;;;;5012166;28;20218;-68
2022/03/31 03:42:19;;;;;;;50.73;25.33;;;8.30;99.90;;;;;;4995340;28;20643;-68
2022/03/31 03:44:45;;;;;;;50.90;25.23;;;8.30;99.90;;;;;;5012565;28;20198;-68
2022/03/31 03:47:11;;;;;;;48.93;25.03;;;8.30;99.90;;;;;;5012505;28;20505;-68
2022/03/31 03:49:37;;;;;;;55.90;25.23;;;8.20;99.90;;;;;;5012766;28;20588;-68
2022/03/31 03:52:03;;;;;;;52.67;26.93;;;8.10;99.90;;;;;;5012654;28;20179;-68
2022/03/31 03:54:30;;;;;;;49.30;25.33;;;8.20;99.90;;;;;;5013321;28;20657;-67
2022/03/31 03:56:56;;;;;;;60.80;30.23;;;8.20;99.90;;;;;;5011694;28;20444;-68
2022/03/31 03:59:24;;;;;;;51.93;27.13;;;8.30;99.90;;;;;;4995035;28;20632;-66
2022/03/31 04:01:51;;;;;;;52.47;25.80;;;8.30;99.90;;;;;;5012462;28;20270;-67
2022/03/31 04:04:16;;;;;;;57.10;26.97;;;8.40;99.90;;;;;;5013430;28;20254;-66
2022/03/31 04:06:42;;;;;;;59.37;27.27;;;8.40;99.90;;;;;;4995019;28;20271;-68
2022/03/31 04:09:09;;;;;;;52.07;25.27;;;8.40;99.90;;;;;;5011931;28;20599;-66
2022/03/31 04:11:34;;;;;;;52.73;23.27;;;8.50;99.90;;;;;;5012222;28;20179;-66
2022/03/31 04:14:00;;;;;;;69.27;27.07;;;8.50;99.90;;;;;;5012015;28;20180;-67
2022/03/31 04:16:26;;;;;;;75.40;26.47;;;8.50;99.90;;;;;;5012158;28;20242;-68
2022/03/31 04:18:51;;;;;;;75.47;27.47;;;8.60;99.90;;;;;;4994060;28;20184;-67
2022/03/31 04:21:17;;;;;;;56.03;26.53;;;8.60;99.90;;;;;;4994761;28;20220;-67
2022/03/31 04:23:43;;;;;;;57.13;23.93;;;8.60;99.90;;;;;;5011353;28;20211;-68
2022/03/31 04:26:09;;;;;;;69.30;27.90;;;8.60;99.90;;;;;;4997008;28;20197;-67
2022/03/31 04:28:35;;;;;;;63.67;28.10;;;8.70;99.90;;;;;;5031385;28;20179;-68
2022/03/31 04:31:01;;;;;;;59.33;27.30;;;8.70;99.90;;;;;;5031070;28;20184;-68
2022/03/31 04:33:28;;;;;;;52.97;25.17;;;8.80;99.90;;;;;;4997568;28;20635;-68
2022/03/31 04:35:55;;;;;;;63.67;27.67;;;8.90;99.90;;;;;;5019470;28;20690;-68
2022/03/31 04:38:21;;;;;;;65.60;28.30;;;9.00;99.90;;;;;;5011778;28;20636;-68
2022/03/31 04:40:47;;;;;;;61.67;28.17;;;9.10;99.90;;;;;;5010707;28;20177;-67
2022/03/31 04:43:13;;;;;;;58.63;28.70;;;9.20;99.90;;;;;;5011342;28;20613;-67
2022/03/31 04:45:39;;;;;;;69.43;29.03;;;9.30;99.90;;;;;;5011394;28;20195;-68
2022/03/31 04:48:05;;;;;;;81.20;30.90;;;9.30;99.90;;;;;;5010397;28;20575;-68
2022/03/31 04:50:31;;;;;;;59.43;28.53;;;9.40;99.90;;;;;;4993186;28;20252;-68
2022/03/31 04:52:57;;;;;;;60.30;28.03;;;9.50;99.90;;;;;;5010880;28;20189;-68
2022/03/31 04:55:25;;;;;;;61.67;28.73;;;9.70;99.90;;;;;;5010840;28;20208;-67
2022/03/31 04:57:51;;;;;;;63.33;28.60;;;9.90;99.90;;;;;;5011000;28;20182;-68
2022/03/31 05:00:17;;;;;;;71.33;29.67;;;9.90;99.90;;;;;;5011236;28;20543;-67
2022/03/31 05:02:42;;;;;;;59.30;28.20;;;10.10;99.90;;;;;;4993760;28;20210;-67
2022/03/31 05:05:09;;;;;;;61.53;28.57;;;10.20;99.90;;;;;;4993229;28;20267;-68
2022/03/31 05:07:35;;;;;;;66.67;29.03;;;10.30;99.90;;;;;;5011816;28;20205;-68
2022/03/31 05:10:01;;;;;;;53.83;27.10;;;10.40;99.90;;;;;;5013964;28;20325;-62
2022/03/31 05:12:26;;;;;;;63.40;28.77;;;10.40;99.90;;;;;;5014959;28;20272;-63
2022/03/31 05:14:52;;;;;;;63.30;28.00;;;10.50;99.90;;;;;;5014690;28;20633;-63
2022/03/31 05:17:18;;;;;;;58.37;27.83;;;10.50;99.90;;;;;;4997221;28;20626;-62
2022/03/31 05:19:44;;;;;;;60.87;28.93;;;10.60;99.90;;;;;;5014865;28;20619;-63
2022/03/31 05:22:10;;;;;;;62.67;26.83;;;10.60;99.90;;;;;;4997423;28;20883;-62
2022/03/31 05:24:35;;;;;;;90.33;29.50;;;10.70;99.90;;;;;;5014768;28;20524;-64
2022/03/31 05:27:02;;;;;;;63.37;26.73;;;10.80;99.90;;;;;;5006379;28;20218;-72
2022/03/31 05:29:27;;;;;;;68.53;28.57;;;11.10;99.90;;;;;;5016895;28;20572;-74
2022/03/31 05:31:53;;;;;;;63.93;27.43;;;11.30;99.90;;;;;;5024746;28;20272;-62
2022/03/31 05:34:21;;;;;;;84.20;34.70;;;11.40;99.90;;;;;;5023748;28;20202;-62
2022/03/31 05:36:47;;;;;;;80.53;31.23;;;11.50;99.90;;;;;;5022951;28;20248;-67
2022/03/31 05:39:13;;;;;;;62.00;27.20;;;11.60;99.90;;;;;;5023068;28;20251;-73
2022/03/31 05:41:39;;;;;;;58.60;28.17;;;11.70;99.90;;;;;;5006285;28;20198;-76
2022/03/31 05:44:05;;;;;;;61.70;26.00;;;11.80;99.90;;;;;;5023130;28;20640;-65
2022/03/31 05:46:30;;;;;;;55.03;25.73;;;11.80;99.50;;;;;;5021394;28;20196;-72
2022/03/31 05:48:57;;;;;;;65.23;25.47;;;11.90;99.70;;;;;;5023490;28;20227;-69
2022/03/31 05:51:23;;;;;;;58.40;22.67;;;12.10;99.50;;;;;;5023075;28;20225;-71
2022/03/31 05:53:48;;;;;;;48.17;23.57;;;12.40;98.50;;;;;;5005883;28;20301;-70
2022/03/31 05:56:14;;;;;;;67.63;23.70;;;12.60;98.00;;;;;;5023011;28;20220;-69
2022/03/31 05:58:40;;;;;;;62.70;25.27;;;12.70;98.10;;;;;;5022407;28;20258;-69
2022/03/31 06:01:06;;;;;;;55.97;25.23;;;12.80;97.90;;;;;;5020945;28;20204;-72
2022/03/31 06:03:32;;;;;;;58.97;24.77;;;12.70;98.20;;;;;;5023792;28;20184;-68
2022/03/31 06:05:58;;;;;;;40.47;23.23;;;12.60;98.40;;;;;;5022653;28;20255;-67
2022/03/31 06:08:25;;;;;;;54.37;24.17;;;12.70;98.00;;;;;;5023112;28;20628;-68
2022/03/31 06:10:51;;;;;;;42.73;20.83;;;12.60;97.70;;;;;;4988197;28;20186;-67
2022/03/31 06:13:17;;;;;;;51.30;20.87;;;12.70;97.10;;;;;;5021724;28;20186;-68
2022/03/31 06:15:43;;;;;;;39.20;18.93;;;12.80;96.50;;;;;;5022468;28;20215;-71
2022/03/31 06:18:08;;;;;;;46.30;23.47;;;13.00;95.90;;;;;;5022797;28;20226;-70
2022/03/31 06:20:34;;;;;;;52.30;23.27;;;13.20;95.70;;;;;;5021285;28;20187;-72
2022/03/31 06:23:02;;;;;;;41.80;21.00;;;13.30;95.10;;;;;;5023110;28;20192;-66
2022/03/31 06:25:27;;;;;;;47.30;21.83;;;13.20;94.70;;;;;;5022320;28;20199;-67
2022/03/31 06:27:54;;;;;;;40.87;21.90;;;13.20;94.50;;;;;;5004390;28;20240;-67
2022/03/31 06:30:20;;;;;;;48.87;23.57;;;13.30;94.80;;;;;;5022149;28;20249;-67
2022/03/31 06:32:46;;;;;;;56.87;23.07;;;13.50;94.30;;;;;;5005641;28;20191;-67
2022/03/31 06:35:14;;;;;;;44.97;21.07;;;13.60;93.40;;;;;;5022034;28;20211;-68
2022/03/31 06:37:49;;;;;;;37.97;21.43;;;13.80;93.10;;;;;;5004161;28;20209;-68
2022/03/31 06:40:17;;;;;;;37.53;18.40;;;13.80;92.70;;;;;;5022194;28;20185;-67
2022/03/31 06:42:43;;;;;;;46.73;19.73;;;13.70;91.80;;;;;;5021390;28;20193;-70
2022/03/31 06:45:12;;;;;;;49.07;19.43;;;13.60;91.90;;;;;;5011739;28;20205;-68
2022/03/31 06:47:39;;;;;;;45.27;19.53;;;13.90;91.70;;;;;;5020815;28;20206;-68
2022/03/31 06:50:06;;;;;;;37.83;19.07;;;14.00;91.30;;;;;;5004381;28;20228;-68
2022/03/31 06:52:31;;;;;;;40.83;16.93;;;14.10;90.90;;;;;;5021601;28;20593;-67
2022/03/31 06:54:57;;;;;;;35.30;18.23;;;14.40;90.20;;;;;;5022640;28;20278;-68
2022/03/31 06:57:23;;;;;;;36.33;18.53;;;14.40;89.80;;;;;;5003463;28;20612;-67
2022/03/31 06:59:50;;;;;;;37.33;17.80;;;14.40;89.30;;;;;;5021828;28;20200;-69
2022/03/31 07:02:15;;;;;;;42.30;18.27;;;14.60;89.90;;;;;;5022310;28;20187;-68
2022/03/31 07:04:41;;;;;;;43.60;17.13;;;14.80;88.30;;;;;;5023261;28;20194;-67
2022/03/31 07:07:07;;;;;;;40.50;17.93;;;14.90;87.20;;;;;;5020756;28;20199;-68
2022/03/31 07:09:33;;;;;;;34.97;16.90;;;14.90;87.40;;;;;;5022088;28;20508;-69
2022/03/31 07:11:59;;;;;;;36.00;17.73;;;14.90;86.90;;;;;;5022080;28;20245;-69
2022/03/31 07:14:25;;;;;;;32.80;16.50;;;15.10;84.90;;;;;;5019052;28;20601;-67
2022/03/31 07:16:51;;;;;;;45.33;17.87;;;15.10;84.70;;;;;;5031620;28;20239;-67
2022/03/31 07:19:17;;;;;;;38.43;16.67;;;15.20;83.80;;;;;;5017752;28;20198;-67
2022/03/31 07:21:43;;;;;;;33.80;16.37;;;15.20;81.90;;;;;;5031907;28;20185;-68
2022/03/31 07:24:09;;;;;;;29.07;16.17;;;15.30;82.00;;;;;;5019995;28;20551;-67
2022/03/31 07:26:35;;;;;;;31.40;16.97;;;15.30;81.70;;;;;;5029266;28;20195;-68
2022/03/31 07:29:01;;;;;;;32.83;15.87;;;15.40;81.60;;;;;;5022081;28;20639;-67
2022/03/31 07:31:28;;;;;;;41.23;15.23;;;15.40;80.50;;;;;;5031364;28;20328;-67
2022/03/31 07:33:57;;;;;;;42.23;16.17;;;15.40;78.80;;;;;;5014095;28;20499;-67
2022/03/31 07:36:23;;;;;;;43.10;16.97;;;15.40;79.60;;;;;;5016538;28;20207;-67
2022/03/31 07:38:48;;;;;;;47.23;18.30;;;15.40;79.60;;;;;;5012304;28;20186;-68
2022/03/31 07:41:15;;;;;;;41.77;18.50;;;15.40;79.20;;;;;;4994140;28;20707;-68
2022/03/31 07:43:42;;;;;;;43.27;16.97;;;15.40;79.80;;;;;;5012643;28;20191;-67
2022/03/31 07:46:08;;;;;;;30.60;16.37;;;15.50;78.40;;;;;;5012089;28;20601;-67
2022/03/31 07:48:33;;;;;;;47.50;16.50;;;15.40;76.60;;;;;;5011838;28;20191;-67
2022/03/31 07:50:59;;;;;;;38.90;15.83;;;15.40;76.20;;;;;;5012013;28;20172;-67
2022/03/31 07:53:26;;;;;;;36.73;15.73;;;15.30;76.10;;;;;;5011160;28;20260;-67
2022/03/31 07:55:52;;;;;;;33.17;16.73;;;15.40;77.20;;;;;;5011149;28;20214;-67
2022/03/31 07:58:18;;;;;;;41.27;15.37;;;15.30;77.90;;;;;;5011275;28;20183;-67
2022/03/31 08:00:50;;;;;;;47.17;19.77;;;15.50;78.60;;;;;;5011136;28;20176;-66
2022/03/31 08:03:17;;;;;;;41.53;16.13;;;15.60;78.10;;;;;;4993151;28;20184;-67
2022/03/31 08:05:43;;;;;;;39.63;16.47;;;16.00;77.60;;;;;;5010694;28;20527;-68
2022/03/31 08:08:09;;;;;;;49.40;17.23;;;16.10;76.30;;;;;;5011540;28;20179;-68
2022/03/31 08:10:35;;;;;;;43.03;16.83;;;16.30;75.60;;;;;;4994663;28;20668;-68
2022/03/31 08:13:01;;;;;;;58.83;17.60;;;16.40;74.90;;;;;;5011433;28;20192;-68
2022/03/31 08:15:27;;;;;;;46.90;18.40;;;16.60;74.50;;;;;;5011405;28;20618;-68
2022/03/31 08:17:53;;;;;;;39.63;17.80;;;16.70;73.00;;;;;;4994141;28;20191;-68
2022/03/31 08:20:19;;;;;;;41.83;17.33;;;16.90;71.60;;;;;;4993963;28;20226;-69
2022/03/31 08:22:45;;;;;;;51.43;17.87;;;17.10;70.30;;;;;;5011782;28;20180;-67
2022/03/31 08:25:13;;;;;;;50.90;18.43;;;17.20;69.70;;;;;;5011511;28;20573;-68
2022/03/31 08:27:39;;;;;;;114.63;24.00;;;17.30;69.40;;;;;;5008774;28;20305;-67
2022/03/31 08:30:11;;;;;;;51.53;18.70;;;17.30;68.70;;;;;;5031282;28;20175;-68
2022/03/31 08:32:39;;;;;;;39.57;17.53;;;17.30;68.50;;;;;;5031522;28;20181;-67
2022/03/31 08:35:07;;;;;;;45.07;19.80;;;17.50;67.70;;;;;;5026021;28;20210;-68
2022/03/31 08:37:33;;;;;;;41.33;14.97;;;17.60;66.60;;;;;;5011597;28;20199;-67
2022/03/31 08:39:59;;;;;;;32.33;14.40;;;17.60;64.50;;;;;;5010720;28;20187;-66
2022/03/31 08:42:25;;;;;;;41.23;15.77;;;17.70;63.60;;;;;;5010515;28;20179;-67
2022/03/31 08:44:52;;;;;;;55.03;15.60;;;17.70;63.20;;;;;;4993720;28;20187;-67
2022/03/31 08:47:19;;;;;;;30.63;13.53;;;17.70;62.40;;;;;;5011346;28;20180;-67
2022/03/31 08:49:46;;;;;;;38.20;14.13;;;17.70;62.00;;;;;;4993853;28;20223;-67
2022/03/31 08:52:13;;;;;;;42.77;13.53;;;17.90;61.90;;;;;;4993356;28;20252;-68
2022/03/31 08:54:40;;;;;;;36.83;13.93;;;17.90;61.50;;;;;;5011175;28;20775;-68
2022/03/31 08:57:06;;;;;;;32.13;11.97;;;17.80;61.20;;;;;;5010673;28;20206;-69
2022/03/31 08:59:32;;;;;;;42.53;13.83;;;17.90;61.00;;;;;;5011081;28;20490;-68
2022/03/31 09:01:59;;;;;;;31.90;13.13;;;18.00;60.80;;;;;;5010443;28;20276;-69
2022/03/31 09:04:25;;;;;;;29.43;12.47;;;18.00;60.50;;;;;;5011156;28;20187;-69
2022/03/31 09:07:20;;;;;;;45.30;13.80;;;18.20;59.90;;;;;;4993165;28;20211;-67
2022/03/31 09:09:47;;;;;;;29.87;14.07;;;18.20;59.60;;;;;;4963353;28;20272;-66
2022/03/31 09:12:13;;;;;;;44.97;14.20;;;18.30;59.70;;;;;;5010432;28;20647;-66
2022/03/31 09:14:39;;;;;;;38.33;12.57;;;18.30;59.40;;;;;;4993000;28;20222;-68
2022/03/31 09:17:13;;;;;;;32.43;11.53;;;18.20;58.60;;;;;;4992859;28;20246;-69
2022/03/31 09:19:39;;;;;;;34.83;11.73;;;18.00;58.80;;;;;;5010989;28;20241;-66
2022/03/31 09:22:05;;;;;;;30.00;11.67;;;18.00;59.10;;;;;;5010737;28;20179;-67
2022/03/31 09:24:32;;;;;;;35.07;10.87;;;18.10;58.40;;;;;;4993210;28;20191;-69
2022/03/31 09:26:59;;;;;;;57.97;14.67;;;18.10;58.20;;;;;;5018776;28;20205;-68
2022/03/31 09:29:27;;;;;;;33.97;12.30;;;18.10;58.30;;;;;;5030511;28;20273;-68
2022/03/31 09:32:05;;;;;;;40.13;11.13;;;18.10;58.30;;;;;;5030571;28;20638;-69
2022/03/31 09:34:42;;;;;;;42.03;12.43;;;18.00;59.40;;;;;;5030371;28;20190;-67
2022/03/31 09:37:08;;;;;;;29.37;10.70;;;18.00;58.70;;;;;;5010654;28;20643;-68
2022/03/31 09:39:34;;;;;;;31.83;11.67;;;17.90;58.00;;;;;;5011020;28;20191;-69
2022/03/31 09:42:00;;;;;;;38.47;11.97;;;17.80;58.50;;;;;;5010834;28;20172;-69
2022/03/31 09:44:26;;;;;;;34.23;10.53;;;17.90;58.40;;;;;;4993398;28;20184;-68
2022/03/31 09:46:52;;;;;;;36.00;12.07;;;17.90;58.90;;;;;;5010152;28;20184;-68
2022/03/31 09:49:18;;;;;;;39.73;12.43;;;17.80;58.80;;;;;;5010077;28;20236;-68
2022/03/31 09:51:48;;;;;;;41.07;12.57;;;17.70;58.90;;;;;;5010787;28;20185;-66
2022/03/31 09:54:15;;;;;;;30.33;12.13;;;17.60;59.30;;;;;;5012546;28;20172;-68
2022/03/31 09:56:41;;;;;;;35.53;12.17;;;17.40;59.10;;;;;;5013841;28;20273;-68
2022/03/31 09:59:16;;;;;;;33.43;12.00;;;17.30;59.20;;;;;;5013882;28;20263;-68
2022/03/31 10:01:42;;;;;;;31.63;11.47;;;17.20;59.60;;;;;;5013172;28;20175;-66
2022/03/31 10:04:10;;;;;;;30.43;12.63;;;17.10;59.60;;;;;;5013373;28;20190;-66
2022/03/31 10:06:38;;;;;;;31.27;12.83;;;17.20;60.00;;;;;;5013826;28;20207;-68
2022/03/31 10:09:05;;;;;;;48.77;15.13;;;17.20;59.60;;;;;;5014538;28;20521;-67
2022/03/31 10:11:34;;;;;;;36.90;13.17;;;17.10;59.60;;;;;;5013256;28;20179;-67
2022/03/31 10:14:44;;;;;;;38.50;12.93;;;17.10;59.80;;;;;;5027946;28;20183;-68
2022/03/31 10:17:11;;;;;;;46.87;15.87;;;17.00;60.60;;;;;;5010381;28;20666;-67
2022/03/31 10:19:43;;;;;;;50.07;12.50;;;17.00;60.40;;;;;;5031983;28;20187;-67
2022/03/31 10:24:58;;;;;;;38.50;13.00;;;16.80;60.70;;;;;;5032958;28;20257;-67
2022/03/31 10:27:29;;;;;;;34.53;11.23;;;16.80;60.80;;;;;;5020465;28;20260;-68
2022/03/31 10:30:07;;;;;;;34.20;11.20;;;16.70;61.10;;;;;;5013669;28;20172;-67
2022/03/31 10:32:33;;;;;;;36.67;12.80;;;16.70;61.30;;;;;;5013834;28;20183;-66
2022/03/31 10:34:59;;;;;;;33.53;11.03;;;16.70;61.70;;;;;;5015693;28;20207;-68
2022/03/31 10:37:37;;;;;;;38.40;11.90;;;16.70;61.30;;;;;;5032734;28;20236;-68
2022/03/31 10:40:09;;;;;;;29.47;11.80;;;16.60;61.60;;;;;;5014949;28;20266;-68
2022/03/31 10:42:37;;;;;;;43.07;12.37;;;16.70;61.80;;;;;;5015694;28;20603;-69
2022/03/31 10:45:12;;;;;;;28.60;10.63;;;16.80;61.80;;;;;;5032685;28;20186;-70
2022/03/31 10:47:40;;;;;;;40.50;12.20;;;16.80;61.60;;;;;;4999206;28;20187;-68
2022/03/31 10:50:08;;;;;;;31.17;11.37;;;17.00;62.00;;;;;;5032406;28;20674;-68
2022/03/31 10:52:35;;;;;;;40.43;12.23;;;17.10;61.80;;;;;;5032725;28;20552;-69
2022/03/31 10:55:14;;;;;;;26.47;11.67;;;17.10;61.50;;;;;;5032390;28;20198;-68
2022/03/31 10:57:45;;;;;;;33.50;12.07;;;17.20;61.30;;;;;;5032714;28;20245;-67
2022/03/31 11:00:17;;;;;;;38.83;10.70;;;17.30;62.10;;;;;;5032485;28;20179;-68
2022/03/31 11:02:45;;;;;;;36.33;11.83;;;17.50;61.70;;;;;;5014426;28;20591;-69
2022/03/31 11:05:12;;;;;;;34.50;10.80;;;17.50;62.30;;;;;;5031561;28;20183;-68
2022/03/31 11:07:38;;;;;;;30.87;11.37;;;17.50;64.20;;;;;;5032781;28;20278;-68
2022/03/31 11:10:12;;;;;;;44.33;13.17;;;17.60;64.60;;;;;;5014398;28;20182;-67
2022/03/31 11:12:39;;;;;;;30.00;10.83;;;17.60;66.40;;;;;;5032491;28;20187;-67
2022/03/31 11:15:13;;;;;;;43.17;14.63;;;17.70;66.30;;;;;;5032119;28;20214;-68
2022/03/31 11:17:41;;;;;;;50.43;17.20;;;17.80;66.50;;;;;;5032339;28;20218;-66
2022/03/31 11:20:22;;;;;;;52.80;15.50;;;18.10;64.30;;;;;;5031911;28;20206;-66
2022/03/31 11:22:59;;;;;;;54.40;16.90;;;18.30;63.90;;;;;;5032501;28;20159;-67
2022/03/31 11:25:25;;;;;;;38.60;13.40;;;18.50;62.50;;;;;;5031851;28;20237;-67
2022/03/31 11:27:52;;;;;;;39.83;16.17;;;18.50;62.10;;;;;;5015691;28;20183;-66
2022/03/31 11:30:21;;;;;;;50.50;16.50;;;18.40;61.40;;;;;;5012020;28;20187;-68
2022/03/31 11:32:50;;;;;;;49.97;15.70;;;18.50;61.00;;;;;;5012690;28;20531;-67
2022/03/31 11:35:18;;;;;;;33.43;11.53;;;18.80;60.80;;;;;;5018038;28;20207;-67
2022/03/31 11:37:52;;;;;;;32.17;10.20;;;19.40;60.60;;;;;;5032667;28;20186;-66
2022/03/31 11:40:26;;;;;;;30.60;10.57;;;19.70;59.00;;;;;;5014048;28;20532;-67
2022/03/31 11:42:54;;;;;;;34.90;10.70;;;19.60;58.60;;;;;;5028036;28;20195;-66
2022/03/31 11:45:27;;;;;;;31.15;10.07;;;19.50;58.60;;;;;;5034752;28;20206;-67
2022/03/31 11:48:11;;;;;;;37.33;12.40;;;19.70;58.40;;;;;;5043794;28;20190;-67
2022/03/31 11:50:58;;;;;;;25.83;9.57;;;19.90;57.50;;;;;;5042148;28;20313;-67
2022/03/31 11:53:30;;;;;;;42.28;11.73;;;20.10;57.50;;;;;;5032356;28;20170;-67
2022/03/31 11:55:57;;;;;;;38.92;10.75;;;20.20;56.80;;;;;;5031592;28;20313;-67
2022/03/31 11:58:23;;;;;;;33.40;9.73;;;20.10;57.20;;;;;;5023554;28;20205;-66
2022/03/31 12:00:50;;;;;;;36.90;10.75;;;20.50;56.60;;;;;;5029864;28;20183;-66
2022/03/31 12:03:17;;;;;;;23.98;9.85;;;20.90;55.00;;;;;;5024680;28;20183;-66
2022/03/31 12:05:53;;;;;;;36.03;10.20;;;21.40;54.50;;;;;;5031523;28;20221;-65
2022/03/31 12:08:19;;;;;;;28.17;8.95;;;21.60;53.90;;;;;;5028070;28;20243;-65
2022/03/31 12:10:50;;;;;;;37.30;9.07;;;21.70;52.90;;;;;;5030553;28;20293;-68
2022/03/31 12:13:15;;;;;;;25.27;9.18;;;21.10;53.70;;;;;;5019041;28;20187;-67
2022/03/31 12:15:41;;;;;;;29.88;9.23;;;20.80;54.20;;;;;;5029371;28;20231;-68
2022/03/31 12:18:12;;;;;;;28.40;8.55;;;20.60;54.70;;;;;;5035112;28;20195;-68
2022/03/31 12:20:38;;;;;;;40.80;8.95;;;20.40;54.80;;;;;;5014062;28;20179;-66
2022/03/31 12:23:17;;;;;;;33.78;10.27;;;20.10;54.90;;;;;;5016923;28;20599;-66
2022/03/31 12:25:43;;;;;;;32.60;9.57;;;20.00;55.50;;;;;;5031094;28;20214;-69
2022/03/31 12:28:09;;;;;;;32.10;8.65;;;20.00;55.40;;;;;;5016870;28;20183;-67
2022/03/31 12:30:46;;;;;;;24.00;7.80;;;20.00;55.30;;;;;;5031227;28;20670;-67
2022/03/31 12:33:28;;;;;;;27.83;8.70;;;19.70;55.50;;;;;;5025749;28;20194;-66
2022/03/31 12:36:05;;;;;;;30.50;9.15;;;19.50;55.90;;;;;;5030253;28;20769;-67
2022/03/31 12:38:39;;;;;;;23.15;7.70;;;19.40;55.90;;;;;;5012746;28;20603;-67